Time;durP1;ratioP1;P1;durP2;ratioP2;P2;SDS_P1;SDS_P2;PMS_P1;PMS_P2;Temp;Humidity;BMP_temperature;BMP_pressure;BME280_temperature;BME280_humidity;BME280_pressure;Samples;Min_cycle;Max_cycle;Signal;HPM_P1;HPM_P2
2022/01/18 00:02:26;;;;;;;16.77;2.45;;;8.70;99.90;;;;;;5057254;28;20223;-71
2022/01/18 00:04:53;;;;;;;9.55;2.90;;;8.60;99.90;;;;;;5075605;28;20214;-72
2022/01/18 00:07:22;;;;;;;7.85;2.72;;;8.60;99.90;;;;;;5074292;28;20198;-73
2022/01/18 00:09:50;;;;;;;10.93;2.50;;;8.60;99.90;;;;;;5074543;28;20206;-73
2022/01/18 00:12:42;;;;;;;12.90;4.10;;;8.60;99.90;;;;;;5071812;28;20712;-73
2022/01/18 00:15:36;;;;;;;8.88;2.45;;;8.70;99.90;;;;;;5075171;28;20195;-72
2022/01/18 00:18:08;;;;;;;18.40;2.80;;;8.70;99.90;;;;;;5069948;28;20609;-72
2022/01/18 00:20:48;;;;;;;6.63;2.60;;;8.70;99.90;;;;;;5073989;28;20627;-73
2022/01/18 00:23:17;;;;;;;6.72;2.92;;;8.60;99.90;;;;;;5056657;28;20778;-72
2022/01/18 00:25:48;;;;;;;14.45;3.30;;;8.60;99.90;;;;;;5074667;28;20306;-73
2022/01/18 00:28:16;;;;;;;14.10;4.82;;;8.60;99.90;;;;;;5074612;28;20215;-73
2022/01/18 00:31:12;;;;;;;10.43;3.50;;;8.60;99.90;;;;;;5067257;28;20199;-72
2022/01/18 00:33:56;;;;;;;9.25;3.58;;;8.60;99.90;;;;;;5074451;28;20561;-73
2022/01/18 00:36:27;;;;;;;11.15;2.95;;;8.60;99.90;;;;;;5072784;28;20549;-73
2022/01/18 00:38:55;;;;;;;8.65;2.60;;;8.60;99.90;;;;;;5074842;28;20210;-73
2022/01/18 00:41:26;;;;;;;16.52;3.40;;;8.60;99.90;;;;;;5074143;28;20302;-71
2022/01/18 00:43:56;;;;;;;15.43;3.00;;;8.60;99.90;;;;;;5074433;28;20199;-71
2022/01/18 00:46:24;;;;;;;16.27;4.32;;;8.60;99.90;;;;;;5074721;28;20301;-71
2022/01/18 00:48:55;;;;;;;22.83;5.50;;;8.60;99.90;;;;;;5074624;28;20203;-72
2022/01/18 00:51:22;;;;;;;7.57;3.15;;;8.50;99.90;;;;;;5073257;28;20226;-71
2022/01/18 00:53:50;;;;;;;12.82;4.18;;;8.60;99.90;;;;;;5074018;28;20203;-71
2022/01/18 00:56:26;;;;;;;13.85;3.85;;;8.50;99.90;;;;;;5074549;28;20209;-72
2022/01/18 00:58:55;;;;;;;13.13;3.92;;;8.60;99.90;;;;;;5056440;28;20226;-72
2022/01/18 01:01:24;;;;;;;16.17;4.15;;;8.50;99.90;;;;;;5073108;28;20231;-72
2022/01/18 01:03:53;;;;;;;14.48;2.97;;;8.50;99.90;;;;;;5074014;28;20282;-72
2022/01/18 01:06:20;;;;;;;9.88;4.03;;;8.50;99.90;;;;;;5073748;28;20226;-72
2022/01/18 01:08:47;;;;;;;16.50;5.13;;;8.50;99.90;;;;;;5074092;28;20290;-71
2022/01/18 01:11:14;;;;;;;8.18;3.00;;;8.50;99.90;;;;;;5073551;28;20241;-71
2022/01/18 01:13:45;;;;;;;10.90;2.80;;;8.50;99.90;;;;;;5073486;28;20235;-71
2022/01/18 01:16:35;;;;;;;10.07;2.53;;;8.50;99.90;;;;;;5074141;28;20210;-72
2022/01/18 01:19:18;;;;;;;10.18;3.00;;;8.40;99.90;;;;;;5068218;28;20202;-72
2022/01/18 01:35:47;;;;;;;7.65;2.47;;;8.40;99.90;;;;;;5073034;28;20685;-72
2022/01/18 01:44:01;;;;;;;16.77;3.65;;;8.40;99.90;;;;;;5068161;28;20221;-71
2022/01/18 01:46:29;;;;;;;14.00;3.08;;;8.40;99.90;;;;;;5072859;28;20227;-71
2022/01/18 01:49:00;;;;;;;18.08;4.43;;;8.40;99.90;;;;;;5073299;28;20199;-72
2022/01/18 01:51:31;;;;;;;7.50;2.90;;;8.50;99.90;;;;;;5072576;28;20685;-70
2022/01/18 01:54:00;;;;;;;14.27;3.47;;;8.40;99.90;;;;;;5067030;28;20298;-72
2022/01/18 01:56:31;;;;;;;23.20;3.42;;;8.40;99.90;;;;;;5073523;28;20201;-70
2022/01/18 01:59:00;;;;;;;9.32;3.10;;;8.40;99.90;;;;;;5073280;28;20577;-72
2022/01/18 02:01:27;;;;;;;11.65;3.03;;;8.40;99.90;;;;;;5072321;28;20229;-72
2022/01/18 02:03:56;;;;;;;9.38;3.90;;;8.40;99.90;;;;;;5073117;28;20664;-71
2022/01/18 02:06:25;;;;;;;8.30;2.90;;;8.40;99.90;;;;;;5073214;28;20607;-72
2022/01/18 02:08:52;;;;;;;10.30;3.20;;;8.40;99.90;;;;;;5073166;28;20245;-71
2022/01/18 02:11:19;;;;;;;4.60;2.25;;;8.40;99.90;;;;;;5072633;28;20230;-71
2022/01/18 02:13:48;;;;;;;7.20;2.72;;;8.40;99.90;;;;;;5073355;28;20293;-72
2022/01/18 02:21:45;;;;;;;12.35;3.50;;;8.50;99.90;;;;;;5073440;28;20195;-72
2022/01/18 02:21:51;;;;;;;6.82;2.72;;;8.40;99.90;;;;;;5071331;28;20238;-71
2022/01/18 02:24:20;;;;;;;7.32;2.42;;;8.30;99.90;;;;;;5073084;28;20247;-72
2022/01/18 02:26:47;;;;;;;6.15;2.20;;;8.30;99.90;;;;;;5073316;28;20221;-71
2022/01/18 02:29:15;;;;;;;8.55;2.75;;;8.40;99.90;;;;;;5073077;28;20205;-72
2022/01/18 02:31:42;;;;;;;8.75;3.00;;;8.30;99.90;;;;;;5071574;28;20229;-71
2022/01/18 02:34:11;;;;;;;6.93;2.58;;;8.30;99.90;;;;;;5077149;28;20647;-71
2022/01/18 02:36:39;;;;;;;9.95;2.88;;;8.30;99.90;;;;;;5076955;28;20636;-71
2022/01/18 02:39:08;;;;;;;11.68;2.92;;;8.30;99.90;;;;;;5077112;28;20199;-71
2022/01/18 02:41:36;;;;;;;7.18;2.55;;;8.30;99.90;;;;;;5075562;28;20261;-72
2022/01/18 02:44:06;;;;;;;8.23;2.45;;;8.20;99.90;;;;;;5076180;28;20199;-71
2022/01/18 02:46:33;;;;;;;9.75;2.35;;;8.20;99.90;;;;;;5075403;28;20229;-72
2022/01/18 02:49:01;;;;;;;8.23;2.90;;;8.30;99.90;;;;;;5077533;28;20271;-71
2022/01/18 02:51:28;;;;;;;10.57;3.30;;;8.20;99.90;;;;;;5076127;28;20312;-71
2022/01/18 02:54:00;;;;;;;11.80;3.38;;;8.20;99.90;;;;;;5076682;28;20272;-72
2022/01/18 02:56:31;;;;;;;9.13;3.28;;;8.20;99.90;;;;;;5076692;28;20198;-71
2022/01/18 02:59:05;;;;;;;11.20;2.85;;;8.20;99.90;;;;;;5076325;28;20286;-72
2022/01/18 03:04:20;;;;;;;17.50;4.63;;;8.10;99.90;;;;;;5076315;28;20737;-72
2022/01/18 03:06:47;;;;;;;12.27;4.15;;;8.20;99.90;;;;;;5076868;28;20662;-72
2022/01/18 03:09:14;;;;;;;13.88;3.72;;;8.20;99.90;;;;;;5076337;28;20289;-71
2022/01/18 03:11:42;;;;;;;12.68;4.18;;;8.20;99.90;;;;;;5075694;28;20227;-72
2022/01/18 03:14:09;;;;;;;20.73;5.90;;;8.20;99.90;;;;;;5076739;28;20202;-71
2022/01/18 03:16:37;;;;;;;13.32;4.20;;;8.20;99.90;;;;;;5076526;28;20191;-71
2022/01/18 03:19:04;;;;;;;20.35;4.97;;;8.10;99.90;;;;;;5075856;28;20237;-72
2022/01/18 03:21:31;;;;;;;16.65;4.60;;;8.10;99.90;;;;;;5073408;28;20314;-71
2022/01/18 03:24:12;;;;;;;14.73;5.50;;;8.10;99.90;;;;;;5076116;28;20239;-72
2022/01/18 03:28:04;;;;;;;24.60;5.60;;;8.20;99.90;;;;;;5076587;28;20234;-71
2022/01/18 03:29:27;;;;;;;21.02;7.82;;;8.30;99.90;;;;;;5075255;28;20206;-72
2022/01/18 03:31:54;;;;;;;16.52;6.07;;;8.30;99.90;;;;;;5076798;28;20314;-72
2022/01/18 03:34:21;;;;;;;27.80;6.53;;;8.30;99.90;;;;;;5076098;28;20249;-71
2022/01/18 03:36:49;;;;;;;28.02;7.15;;;8.30;99.90;;;;;;5076207;28;20680;-72
2022/01/18 03:39:16;;;;;;;19.65;6.25;;;8.30;99.90;;;;;;5075665;28;20207;-71
2022/01/18 03:41:43;;;;;;;24.92;7.97;;;8.40;99.90;;;;;;5073491;28;20309;-70
2022/01/18 03:44:10;;;;;;;16.70;6.38;;;8.40;99.90;;;;;;5075401;28;20711;-71
2022/01/18 03:46:38;;;;;;;26.13;6.82;;;8.30;99.90;;;;;;5075770;28;20690;-71
2022/01/18 03:49:06;;;;;;;18.80;4.72;;;8.30;99.90;;;;;;5075699;28;20298;-71
2022/01/18 03:51:33;;;;;;;16.25;5.50;;;8.30;99.90;;;;;;5075050;28;20237;-70
2022/01/18 03:54:00;;;;;;;18.42;5.20;;;8.30;99.90;;;;;;5076161;28;20281;-71
2022/01/18 03:56:28;;;;;;;19.63;4.63;;;8.10;99.90;;;;;;5075878;28;20663;-72
2022/01/18 03:58:55;;;;;;;19.02;6.97;;;8.30;99.90;;;;;;5076231;28;20230;-71
2022/01/18 04:01:22;;;;;;;11.10;4.90;;;8.30;99.90;;;;;;5075093;28;20228;-71
2022/01/18 04:03:50;;;;;;;21.15;6.15;;;8.30;99.90;;;;;;5076455;28;20203;-71
2022/01/18 04:06:18;;;;;;;15.07;5.35;;;8.30;99.90;;;;;;5074872;28;20309;-71
2022/01/18 04:08:45;;;;;;;16.55;4.70;;;8.30;99.90;;;;;;5075469;28;20202;-71
2022/01/18 04:11:13;;;;;;;23.98;5.32;;;8.20;99.90;;;;;;5074137;28;20594;-73
2022/01/18 04:13:40;;;;;;;17.02;5.15;;;8.20;99.90;;;;;;5075265;28;20539;-70
2022/01/18 04:16:07;;;;;;;24.33;9.07;;;8.30;99.90;;;;;;5075480;28;20195;-70
2022/01/18 04:18:48;;;;;;;23.40;6.70;;;8.30;99.90;;;;;;5075338;28;20202;-71
2022/01/18 04:27:00;;;;;;;22.75;8.20;;;8.40;99.90;;;;;;5067179;28;20229;-71
2022/01/18 04:29:28;;;;;;;16.67;6.80;;;8.40;99.90;;;;;;5072461;28;20206;-73
2022/01/18 04:31:55;;;;;;;27.25;6.43;;;8.40;99.90;;;;;;5074625;28;20261;-72
2022/01/18 04:34:22;;;;;;;22.05;7.75;;;8.40;99.90;;;;;;5074968;28;20286;-72
2022/01/18 04:36:51;;;;;;;24.55;8.27;;;8.40;99.90;;;;;;5074471;28;20203;-71
2022/01/18 04:39:18;;;;;;;32.03;8.60;;;8.30;99.90;;;;;;5073359;28;20244;-73
2022/01/18 04:41:46;;;;;;;22.15;8.55;;;8.30;99.90;;;;;;5074296;28;20265;-72
2022/01/18 04:49:49;;;;;;;28.27;8.85;;;8.30;99.90;;;;;;5076312;28;20294;-72
2022/01/18 04:52:18;;;;;;;26.33;8.73;;;8.40;99.90;;;;;;5074563;28;20230;-72
2022/01/18 04:54:56;;;;;;;27.20;7.22;;;8.40;99.90;;;;;;5069229;28;20255;-72
2022/01/18 05:00:10;;;;;;;38.55;9.48;;;8.40;99.90;;;;;;5073763;28;20209;-72
2022/01/18 05:02:36;;;;;;;24.48;7.15;;;8.40;99.90;;;;;;5074071;28;20285;-72
2022/01/18 05:05:04;;;;;;;21.80;6.45;;;8.50;99.90;;;;;;5074856;28;20289;-72
2022/01/18 05:07:32;;;;;;;19.65;7.30;;;8.40;99.90;;;;;;5073669;28;20784;-72
2022/01/18 05:09:59;;;;;;;26.67;6.35;;;8.50;99.90;;;;;;5073212;28;20207;-72
2022/01/18 05:12:38;;;;;;;23.17;6.18;;;8.50;99.90;;;;;;5073870;28;20227;-72
2022/01/18 05:15:21;;;;;;;27.08;8.07;;;8.50;99.90;;;;;;5056202;28;20241;-73
2022/01/18 05:18:09;;;;;;;22.20;6.97;;;8.50;99.90;;;;;;5072697;28;20231;-72
2022/01/18 05:20:55;;;;;;;32.20;9.48;;;8.50;99.90;;;;;;5070620;28;20211;-72
2022/01/18 05:23:23;;;;;;;18.73;7.05;;;8.50;99.90;;;;;;5079876;28;20615;-72
2022/01/18 05:25:50;;;;;;;22.80;7.47;;;8.50;99.90;;;;;;5073804;28;20250;-72
2022/01/18 05:28:17;;;;;;;26.63;8.88;;;8.40;99.90;;;;;;5073270;28;20202;-73
2022/01/18 05:30:44;;;;;;;23.73;5.45;;;8.40;99.90;;;;;;5072746;28;20202;-71
2022/01/18 05:33:12;;;;;;;22.85;7.30;;;8.40;99.90;;;;;;5073559;28;20231;-71
2022/01/18 05:35:39;;;;;;;21.27;6.45;;;8.40;99.90;;;;;;5073542;28;20256;-71
2022/01/18 05:38:07;;;;;;;25.52;7.65;;;8.40;99.90;;;;;;5073665;28;20209;-72
2022/01/18 05:40:37;;;;;;;32.80;6.82;;;8.50;99.90;;;;;;5072391;28;20281;-71
2022/01/18 05:43:04;;;;;;;32.38;7.15;;;8.50;99.90;;;;;;5073573;28;20652;-71
2022/01/18 05:45:31;;;;;;;32.75;8.27;;;8.50;99.90;;;;;;5073358;28;20262;-70
2022/01/18 05:47:58;;;;;;;36.90;6.85;;;8.40;99.90;;;;;;5074046;28;20293;-71
2022/01/18 05:50:25;;;;;;;26.00;7.60;;;8.40;99.90;;;;;;5072551;28;20230;-69
2022/01/18 05:52:52;;;;;;;18.40;8.40;;;8.40;99.90;;;;;;5072554;28;20314;-71
2022/01/18 05:55:19;;;;;;;30.33;8.05;;;8.40;99.90;;;;;;5072707;28;20278;-72
2022/01/18 05:57:49;;;;;;;23.70;8.65;;;8.30;99.90;;;;;;5073062;28;20285;-72
2022/01/18 06:00:22;;;;;;;25.95;8.23;;;8.30;99.90;;;;;;5072818;28;20229;-71
2022/01/18 06:03:02;;;;;;;42.88;7.90;;;8.30;99.90;;;;;;5073864;28;20249;-72
2022/01/18 06:08:13;;;;;;;39.28;9.73;;;8.20;99.90;;;;;;5073100;28;20201;-74
2022/01/18 06:10:40;;;;;;;32.10;7.70;;;8.10;99.90;;;;;;5064019;28;20187;-72
2022/01/18 06:13:09;;;;;;;27.02;6.97;;;8.10;99.90;;;;;;5073164;28;20223;-73
2022/01/18 06:15:36;;;;;;;22.90;8.70;;;8.10;99.90;;;;;;5073436;28;20201;-73
2022/01/18 06:18:03;;;;;;;32.47;7.63;;;8.10;99.90;;;;;;5073124;28;20226;-73
2022/01/18 06:20:30;;;;;;;31.75;7.43;;;8.10;99.90;;;;;;5072392;28;20687;-73
2022/01/18 06:22:57;;;;;;;22.35;6.10;;;8.10;99.90;;;;;;5073254;28;20203;-73
2022/01/18 06:25:25;;;;;;;23.58;7.63;;;8.10;99.90;;;;;;5073748;28;20209;-72
2022/01/18 06:27:53;;;;;;;54.33;9.70;;;8.10;99.90;;;;;;5073118;28;20235;-73
2022/01/18 06:30:22;;;;;;;24.00;7.45;;;8.10;99.90;;;;;;5072368;28;20297;-73
2022/01/18 06:32:49;;;;;;;20.75;6.97;;;8.10;99.90;;;;;;5072265;28;20226;-73
2022/01/18 06:35:17;;;;;;;32.50;7.20;;;8.20;99.90;;;;;;5071824;28;20292;-74
2022/01/18 06:37:44;;;;;;;24.23;5.53;;;8.10;99.90;;;;;;5060587;28;20240;-73
2022/01/18 06:40:13;;;;;;;28.75;6.65;;;8.10;99.90;;;;;;5072786;28;20568;-74
2022/01/18 06:42:40;;;;;;;19.67;6.88;;;8.10;99.90;;;;;;5073487;28;20325;-75
2022/01/18 06:45:08;;;;;;;23.13;6.35;;;8.20;99.90;;;;;;5073492;28;20205;-72
2022/01/18 06:47:38;;;;;;;28.55;7.95;;;8.30;99.90;;;;;;5072046;28;20233;-73
2022/01/18 06:50:07;;;;;;;30.08;9.20;;;8.30;99.90;;;;;;5071898;28;20285;-73
2022/01/18 06:52:34;;;;;;;24.33;7.95;;;8.30;99.90;;;;;;5072529;28;20298;-75
2022/01/18 06:55:02;;;;;;;25.52;9.20;;;8.30;99.90;;;;;;5072023;28;20285;-73
2022/01/18 06:57:29;;;;;;;20.85;6.95;;;8.30;99.90;;;;;;5074816;28;20214;-74
2022/01/18 06:59:57;;;;;;;27.65;8.38;;;8.40;99.90;;;;;;5071059;28;20218;-71
2022/01/18 07:02:24;;;;;;;21.20;7.70;;;8.30;99.90;;;;;;5072622;28;20298;-73
2022/01/18 07:04:53;;;;;;;24.50;6.78;;;8.40;99.90;;;;;;5072749;28;20369;-74
2022/01/18 07:07:20;;;;;;;23.08;7.25;;;8.30;99.90;;;;;;5072789;28;20215;-71
2022/01/18 07:09:47;;;;;;;47.78;9.82;;;8.30;99.90;;;;;;5072162;28;20317;-71
2022/01/18 07:12:15;;;;;;;24.02;8.02;;;8.30;99.90;;;;;;5072577;28;20670;-72
2022/01/18 07:14:42;;;;;;;33.55;7.15;;;8.30;99.90;;;;;;5072703;28;20214;-72
2022/01/18 07:17:09;;;;;;;24.67;8.30;;;8.40;99.90;;;;;;5075688;28;20214;-72
2022/01/18 07:19:37;;;;;;;21.02;7.00;;;8.40;99.90;;;;;;5075499;28;20241;-73
2022/01/18 07:22:06;;;;;;;31.67;7.97;;;8.40;99.90;;;;;;5076056;28;20266;-71
2022/01/18 07:24:41;;;;;;;31.23;8.88;;;8.40;99.90;;;;;;5076041;28;20211;-71
2022/01/18 07:27:10;;;;;;;33.63;8.50;;;8.40;99.90;;;;;;5075700;28;20586;-71
2022/01/18 07:29:38;;;;;;;21.27;8.40;;;8.40;99.90;;;;;;5075308;28;20577;-72
2022/01/18 07:32:06;;;;;;;33.95;10.38;;;8.50;99.90;;;;;;5076229;28;20230;-72
2022/01/18 07:34:35;;;;;;;22.67;6.93;;;8.40;99.90;;;;;;5075600;28;20286;-71
2022/01/18 07:37:02;;;;;;;26.58;7.72;;;8.40;99.90;;;;;;5076146;28;20191;-72
2022/01/18 07:39:30;;;;;;;33.97;7.63;;;8.40;99.90;;;;;;5074720;28;20558;-70
2022/01/18 07:41:57;;;;;;;23.77;7.07;;;8.50;99.90;;;;;;5070864;28;20223;-72
2022/01/18 07:44:24;;;;;;;35.40;7.60;;;8.60;99.90;;;;;;5075611;28;20205;-73
2022/01/18 07:46:51;;;;;;;15.95;6.32;;;8.50;99.90;;;;;;5075401;28;20309;-74
2022/01/18 07:49:18;;;;;;;22.13;7.32;;;8.60;99.90;;;;;;5075785;28;20213;-73
2022/01/18 07:51:45;;;;;;;30.73;8.60;;;8.60;99.90;;;;;;5075023;28;20222;-73
2022/01/18 07:54:12;;;;;;;26.25;8.10;;;8.50;99.90;;;;;;5074815;28;20214;-73
2022/01/18 07:56:41;;;;;;;24.45;8.55;;;8.40;99.90;;;;;;5074880;28;20283;-73
2022/01/18 07:59:09;;;;;;;27.10;8.25;;;8.50;99.90;;;;;;5072924;28;20260;-75
2022/01/18 08:01:36;;;;;;;39.78;8.40;;;8.50;99.90;;;;;;5063208;28;20222;-73
2022/01/18 08:04:04;;;;;;;19.75;8.75;;;8.50;99.90;;;;;;5074845;28;20211;-75
2022/01/18 08:06:31;;;;;;;18.48;6.65;;;8.60;99.90;;;;;;5075251;28;20650;-72
2022/01/18 08:08:58;;;;;;;21.60;6.65;;;8.60;99.90;;;;;;5074456;28;20294;-74
2022/01/18 08:11:25;;;;;;;28.50;7.20;;;8.60;99.90;;;;;;5071636;28;20315;-73
2022/01/18 08:13:54;;;;;;;24.73;5.82;;;8.60;99.90;;;;;;5075256;28;20231;-72
2022/01/18 08:16:46;;;;;;;19.52;6.30;;;8.60;99.90;;;;;;5073807;28;20298;-74
2022/01/18 08:19:14;;;;;;;12.13;4.50;;;8.60;99.90;;;;;;5074270;28;20620;-72
2022/01/18 08:21:41;;;;;;;22.77;6.18;;;8.50;99.90;;;;;;5074084;28;20325;-73
2022/01/18 08:24:08;;;;;;;13.85;5.80;;;8.60;99.90;;;;;;5072658;28;20206;-72
2022/01/18 08:26:35;;;;;;;22.60;6.57;;;8.60;99.90;;;;;;5072999;28;20210;-73
2022/01/18 08:29:03;;;;;;;18.00;5.30;;;8.60;99.90;;;;;;5067561;28;20606;-73
2022/01/18 08:31:30;;;;;;;25.13;5.15;;;8.60;99.90;;;;;;5066839;28;20751;-73
2022/01/18 08:33:57;;;;;;;15.52;6.20;;;8.60;99.90;;;;;;5075008;28;20210;-73
2022/01/18 08:36:24;;;;;;;25.15;7.13;;;8.50;99.90;;;;;;5075596;28;20210;-74
2022/01/18 08:38:53;;;;;;;14.70;4.25;;;8.60;99.90;;;;;;5075023;28;20301;-73
2022/01/18 08:41:21;;;;;;;15.85;5.00;;;8.50;99.90;;;;;;5074114;28;20221;-74
2022/01/18 08:43:48;;;;;;;17.13;3.95;;;8.50;99.90;;;;;;5074936;28;20203;-73
2022/01/18 08:46:17;;;;;;;28.80;5.25;;;8.40;99.90;;;;;;5074514;28;20298;-73
2022/01/18 08:48:44;;;;;;;19.27;4.93;;;8.30;99.90;;;;;;5074964;28;20207;-74
2022/01/18 08:51:11;;;;;;;17.95;5.50;;;8.30;99.90;;;;;;5074169;28;20238;-74
2022/01/18 08:53:38;;;;;;;29.80;5.00;;;8.40;99.90;;;;;;5074884;28;20268;-74
2022/01/18 08:56:06;;;;;;;16.15;5.15;;;8.40;99.90;;;;;;5070118;28;20183;-72
2022/01/18 08:58:34;;;;;;;20.85;7.03;;;8.40;99.90;;;;;;5075307;28;20282;-73
2022/01/18 09:01:01;;;;;;;17.40;5.45;;;8.50;99.90;;;;;;5073384;28;20227;-73
2022/01/18 09:03:30;;;;;;;21.15;4.93;;;8.50;99.90;;;;;;5074506;28;20249;-74
2022/01/18 09:05:58;;;;;;;21.67;7.25;;;8.60;99.90;;;;;;5073725;28;20291;-73
2022/01/18 09:08:25;;;;;;;21.55;5.45;;;8.60;99.90;;;;;;5074013;28;20244;-74
2022/01/18 09:10:53;;;;;;;24.95;4.72;;;8.60;99.90;;;;;;5073463;28;20272;-74
2022/01/18 09:13:21;;;;;;;13.43;4.20;;;8.60;99.90;;;;;;5073918;28;20293;-73
2022/01/18 09:15:49;;;;;;;18.42;4.80;;;8.60;99.90;;;;;;5074146;28;20257;-74
2022/01/18 09:18:16;;;;;;;21.08;5.60;;;8.60;99.90;;;;;;5074034;28;20542;-73
2022/01/18 09:20:45;;;;;;;31.15;5.30;;;8.60;99.90;;;;;;5073056;28;20213;-74
2022/01/18 09:23:13;;;;;;;18.75;6.05;;;8.60;99.90;;;;;;5073868;28;20241;-74
2022/01/18 09:25:42;;;;;;;21.90;6.78;;;8.70;99.90;;;;;;5074016;28;20290;-74
2022/01/18 09:28:09;;;;;;;19.52;5.45;;;8.70;99.90;;;;;;5073599;28;20260;-74
2022/01/18 09:30:38;;;;;;;23.02;5.10;;;8.70;99.90;;;;;;5073401;28;20661;-73
2022/01/18 09:33:06;;;;;;;14.70;5.10;;;8.70;99.90;;;;;;5071787;28;20230;-72
2022/01/18 09:35:34;;;;;;;15.88;5.07;;;8.70;99.90;;;;;;5078767;28;20199;-73
2022/01/18 09:38:04;;;;;;;21.98;5.00;;;8.60;99.90;;;;;;5079858;28;20704;-72
2022/01/18 09:40:33;;;;;;;24.92;4.80;;;8.60;99.90;;;;;;5071543;28;20654;-74
2022/01/18 09:43:02;;;;;;;25.25;6.63;;;8.60;99.90;;;;;;5073774;28;20235;-74
2022/01/18 09:45:31;;;;;;;17.30;5.00;;;8.70;99.90;;;;;;5073803;28;20497;-73
2022/01/18 09:47:59;;;;;;;22.83;6.65;;;8.70;99.90;;;;;;5072513;28;20210;-73
2022/01/18 09:50:31;;;;;;;20.50;6.65;;;8.80;99.90;;;;;;5065986;28;20199;-74
2022/01/18 09:52:59;;;;;;;17.70;6.15;;;8.90;99.90;;;;;;5065644;28;20206;-73
2022/01/18 09:55:30;;;;;;;24.45;7.00;;;8.90;99.90;;;;;;5067535;28;20230;-73
2022/01/18 09:57:59;;;;;;;18.63;6.78;;;8.90;99.90;;;;;;5057710;28;20276;-74
2022/01/18 10:00:30;;;;;;;13.75;5.15;;;9.00;99.90;;;;;;5069907;28;20199;-73
2022/01/18 10:02:58;;;;;;;21.48;6.38;;;9.00;99.90;;;;;;5065291;28;20261;-73
2022/01/18 10:05:28;;;;;;;17.50;4.97;;;9.10;99.90;;;;;;5072933;28;20195;-73
2022/01/18 10:08:00;;;;;;;17.83;4.85;;;9.00;99.90;;;;;;5071558;28;20258;-74
2022/01/18 10:10:42;;;;;;;16.67;5.15;;;9.00;99.90;;;;;;5070564;28;20249;-74
2022/01/18 10:13:16;;;;;;;14.38;4.88;;;9.10;99.90;;;;;;5073626;28;20195;-74
2022/01/18 10:15:59;;;;;;;15.35;4.25;;;9.10;99.90;;;;;;5065660;28;20616;-72
2022/01/18 10:18:47;;;;;;;17.15;4.90;;;9.10;99.90;;;;;;5071373;28;20252;-73
2022/01/18 10:21:24;;;;;;;24.48;5.50;;;9.20;99.90;;;;;;5072803;28;20231;-74
2022/01/18 10:23:54;;;;;;;21.48;3.83;;;9.30;99.90;;;;;;5066435;28;20230;-73
2022/01/18 10:26:25;;;;;;;20.77;5.18;;;9.40;99.90;;;;;;5072776;28;20662;-74
2022/01/18 10:29:05;;;;;;;13.10;4.05;;;9.60;99.90;;;;;;5072910;28;20229;-73
2022/01/18 10:31:39;;;;;;;14.85;5.78;;;9.60;99.90;;;;;;5070846;28;20223;-74
2022/01/18 10:34:26;;;;;;;27.95;4.03;;;9.90;99.90;;;;;;5072526;28;20748;-73
2022/01/18 10:37:00;;;;;;;21.08;3.70;;;10.10;99.90;;;;;;5072968;28;20706;-74
2022/01/18 10:39:29;;;;;;;15.88;4.55;;;10.10;99.90;;;;;;5072079;28;20562;-74
2022/01/18 10:41:59;;;;;;;23.02;4.15;;;9.90;99.90;;;;;;5073544;28;20249;-74
2022/01/18 10:44:28;;;;;;;16.38;5.15;;;10.10;99.90;;;;;;5071343;28;20203;-75
2022/01/18 10:46:58;;;;;;;10.98;3.28;;;10.10;99.90;;;;;;5073909;28;20195;-72
2022/01/18 10:49:39;;;;;;;15.52;5.25;;;10.10;99.90;;;;;;5072522;28;20312;-73
2022/01/18 10:52:09;;;;;;;12.13;4.93;;;10.10;99.90;;;;;;5075779;28;20226;-72
2022/01/18 10:54:45;;;;;;;13.00;3.80;;;10.00;99.90;;;;;;5076837;28;20214;-76
2022/01/18 10:57:19;;;;;;;15.20;3.15;;;9.90;99.90;;;;;;5073245;28;20334;-74
2022/01/18 10:59:47;;;;;;;6.30;3.25;;;9.70;99.90;;;;;;5065788;28;20216;-75
2022/01/18 11:02:17;;;;;;;12.73;3.72;;;9.60;99.90;;;;;;5067833;28;20223;-72
2022/01/18 11:04:47;;;;;;;14.55;3.42;;;9.50;99.90;;;;;;5073258;28;20208;-73
2022/01/18 11:07:17;;;;;;;15.60;3.08;;;9.40;99.90;;;;;;5076261;28;20679;-75
2022/01/18 11:09:45;;;;;;;12.57;3.13;;;9.30;99.90;;;;;;5075835;28;20728;-74
2022/01/18 11:12:12;;;;;;;21.67;10.48;;;9.10;99.90;;;;;;5076213;28;20258;-77
2022/01/18 11:14:45;;;;;;;8.65;4.88;;;9.20;99.90;;;;;;5076415;28;20207;-73
2022/01/18 11:17:20;;;;;;;11.52;5.28;;;9.20;99.90;;;;;;5075409;28;20664;-74
2022/01/18 11:19:49;;;;;;;16.23;3.38;;;9.10;99.90;;;;;;5074910;28;20264;-74
2022/01/18 11:22:17;;;;;;;17.80;6.22;;;9.10;99.90;;;;;;5075463;28;20257;-74
2022/01/18 11:24:47;;;;;;;12.70;4.65;;;9.10;99.90;;;;;;5068018;28;20237;-74
2022/01/18 11:27:15;;;;;;;16.17;5.80;;;9.00;99.90;;;;;;5075481;28;20622;-74
2022/01/18 11:29:46;;;;;;;9.32;3.70;;;9.20;99.90;;;;;;5075008;28;20234;-74
2022/01/18 11:32:16;;;;;;;17.25;5.30;;;9.20;99.90;;;;;;5076352;28;20233;-73
2022/01/18 11:34:58;;;;;;;16.85;4.75;;;9.20;99.90;;;;;;5068108;28;20194;-72
2022/01/18 11:37:31;;;;;;;13.25;4.55;;;9.50;99.90;;;;;;5075202;28;20199;-72
2022/01/18 11:40:00;;;;;;;11.65;5.35;;;9.70;99.90;;;;;;5073920;28;20290;-73
2022/01/18 11:42:46;;;;;;;12.27;4.38;;;9.90;99.90;;;;;;5075334;28;20317;-75
2022/01/18 11:45:42;;;;;;;13.35;5.03;;;9.90;99.90;;;;;;5075335;28;20199;-74
2022/01/18 11:48:15;;;;;;;9.60;4.13;;;10.00;99.90;;;;;;5029814;28;20229;-74
2022/01/18 11:50:45;;;;;;;14.25;5.00;;;9.70;99.90;;;;;;5075248;28;20202;-75
2022/01/18 11:53:24;;;;;;;13.98;4.03;;;9.60;99.90;;;;;;5074397;28;20217;-77
2022/01/18 11:55:52;;;;;;;13.38;4.13;;;9.70;99.90;;;;;;5050261;28;20203;-76
2022/01/18 11:58:19;;;;;;;6.93;3.40;;;9.80;99.90;;;;;;5075371;28;20594;-76
2022/01/18 12:00:56;;;;;;;14.43;4.35;;;9.70;99.90;;;;;;5074701;28;20608;-77
2022/01/18 12:03:26;;;;;;;17.55;5.40;;;9.50;99.90;;;;;;5074913;28;20202;-74
2022/01/18 12:05:54;;;;;;;9.80;3.58;;;9.60;99.90;;;;;;5076010;28;20195;-75
2022/01/18 12:08:36;;;;;;;17.50;5.20;;;9.50;99.90;;;;;;5072400;28;20239;-75
2022/01/18 12:11:04;;;;;;;11.75;4.97;;;9.50;99.90;;;;;;5074906;28;20229;-77
2022/01/18 12:13:37;;;;;;;9.63;4.40;;;9.30;99.90;;;;;;5075746;28;20571;-76
2022/01/18 12:16:19;;;;;;;11.13;4.07;;;9.20;99.90;;;;;;5075718;28;20274;-74
2022/01/18 12:18:55;;;;;;;16.38;6.35;;;9.40;99.90;;;;;;5051376;28;20207;-74
2022/01/18 12:21:26;;;;;;;18.92;5.30;;;9.40;99.90;;;;;;5063278;28;20322;-74
2022/01/18 12:23:53;;;;;;;12.68;4.72;;;9.40;99.90;;;;;;5074869;28;20282;-76
2022/01/18 12:26:40;;;;;;;11.90;6.00;;;9.30;99.90;;;;;;5075186;28;20294;-77
2022/01/18 12:29:34;;;;;;;9.43;4.65;;;9.10;99.90;;;;;;5074927;28;20864;-78
2022/01/18 12:34:51;;;;;;;13.45;5.10;;;8.60;99.90;;;;;;5063516;28;20657;-76
2022/01/18 12:37:40;;;;;;;13.50;4.88;;;8.60;99.90;;;;;;5074894;28;20202;-75
2022/01/18 12:40:11;;;;;;;13.60;4.55;;;8.60;99.90;;;;;;5073464;28;20199;-76
2022/01/18 12:45:30;;;;;;;13.57;4.78;;;8.70;99.90;;;;;;5075071;28;20727;-74
2022/01/18 12:48:00;;;;;;;17.40;5.80;;;8.80;99.90;;;;;;5074818;28;20214;-75
2022/01/18 12:50:31;;;;;;;19.65;7.13;;;8.70;99.90;;;;;;5074057;28;20260;-74
2022/01/18 12:53:00;;;;;;;13.95;6.20;;;8.70;99.90;;;;;;5075014;28;20198;-74
2022/01/18 12:55:36;;;;;;;14.55;7.22;;;8.60;99.90;;;;;;5075123;28;20310;-74
2022/01/18 12:58:08;;;;;;;21.67;8.20;;;8.40;99.90;;;;;;5074058;28;20202;-75
2022/01/18 13:00:40;;;;;;;13.32;7.07;;;8.40;99.90;;;;;;5073313;28;20245;-75
2022/01/18 13:03:09;;;;;;;13.88;5.93;;;8.50;99.90;;;;;;5074843;28;20205;-73
2022/01/18 13:05:38;;;;;;;11.77;6.32;;;8.50;99.90;;;;;;5074324;28;20290;-75
2022/01/18 13:08:07;;;;;;;14.27;6.47;;;8.50;99.90;;;;;;5075130;28;20220;-76
2022/01/18 13:10:38;;;;;;;11.85;6.28;;;8.40;99.90;;;;;;5074461;28;20661;-74
2022/01/18 13:13:06;;;;;;;11.82;5.47;;;8.40;99.90;;;;;;5073293;28;20238;-76
2022/01/18 13:15:51;;;;;;;17.20;5.68;;;8.40;99.90;;;;;;5071467;28;20278;-77
2022/01/18 13:24:05;;;;;;;8.80;3.28;;;8.50;99.90;;;;;;5043562;28;20559;-76
2022/01/18 13:26:36;;;;;;;6.13;2.70;;;8.40;99.90;;;;;;5073964;28;20274;-73
2022/01/18 13:29:12;;;;;;;4.43;2.45;;;8.50;99.90;;;;;;5074045;28;20264;-75
2022/01/18 13:31:41;;;;;;;4.78;2.20;;;8.40;99.90;;;;;;5073006;28;20241;-76
2022/01/18 13:34:12;;;;;;;1.60;1.50;;;8.30;99.90;;;;;;5073375;28;20286;-77
2022/01/18 13:36:50;;;;;;;4.13;1.85;;;8.30;99.90;;;;;;5077911;28;20628;-79
2022/01/18 13:39:29;;;;;;;4.35;2.42;;;8.40;99.90;;;;;;5086510;28;20222;-76
2022/01/18 13:41:58;;;;;;;3.70;2.00;;;8.40;99.90;;;;;;5074207;28;20223;-76
2022/01/18 13:44:26;;;;;;;6.28;2.60;;;8.40;99.90;;;;;;5074358;28;20211;-76
2022/01/18 13:46:53;;;;;;;3.92;2.17;;;8.40;99.90;;;;;;5074370;28;20668;-75
2022/01/18 13:49:25;;;;;;;3.75;2.28;;;8.40;99.90;;;;;;5072852;28;20272;-75
2022/01/18 13:52:07;;;;;;;4.15;2.40;;;8.30;99.90;;;;;;5073505;28;20313;-76
2022/01/18 13:54:44;;;;;;;7.40;3.10;;;8.30;99.90;;;;;;5073437;28;20289;-74
2022/01/18 13:57:11;;;;;;;4.85;2.80;;;8.30;99.90;;;;;;5069142;28;20290;-75
2022/01/18 13:59:38;;;;;;;3.08;2.38;;;8.30;99.90;;;;;;5073478;28;20221;-77